sensor_id;sensor_type;location;lat;lon;timestamp;P1;durP1;ratioP1;P2;durP2;ratioP2
50932;SDS011;36921;49.006;9.292;2023-03-24T00:00:58;5.15;;;2.53;;
50932;SDS011;36921;49.006;9.292;2023-03-24T00:03:25;4.05;;;2.10;;
50932;SDS011;36921;49.006;9.292;2023-03-24T00:05:58;4.93;;;2.17;;
50932;SDS011;36921;49.006;9.292;2023-03-24T00:08:29;4.97;;;2.35;;
50932;SDS011;36921;49.006;9.292;2023-03-24T00:11:04;5.18;;;2.40;;
50932;SDS011;36921;49.006;9.292;2023-03-24T00:13:31;6.95;;;2.50;;
50932;SDS011;36921;49.006;9.292;2023-03-24T00:16:02;4.13;;;2.38;;
50932;SDS011;36921;49.006;9.292;2023-03-24T00:18:38;4.07;;;2.50;;
50932;SDS011;36921;49.006;9.292;2023-03-24T00:21:04;4.35;;;2.42;;
50932;SDS011;36921;49.006;9.292;2023-03-24T00:23:30;4.63;;;2.50;;
50932;SDS011;36921;49.006;9.292;2023-03-24T00:25:58;6.30;;;2.42;;
50932;SDS011;36921;49.006;9.292;2023-03-24T00:28:27;5.60;;;2.30;;
50932;SDS011;36921;49.006;9.292;2023-03-24T00:30:55;2.70;;;1.75;;
50932;SDS011;36921;49.006;9.292;2023-03-24T00:33:23;3.60;;;2.28;;
50932;SDS011;36921;49.006;9.292;2023-03-24T00:35:49;7.35;;;2.65;;
50932;SDS011;36921;49.006;9.292;2023-03-24T00:38:15;5.15;;;1.90;;
50932;SDS011;36921;49.006;9.292;2023-03-24T00:40:44;3.72;;;2.13;;
50932;SDS011;36921;49.006;9.292;2023-03-24T00:43:10;3.22;;;1.95;;
50932;SDS011;36921;49.006;9.292;2023-03-24T00:45:37;3.45;;;2.17;;
50932;SDS011;36921;49.006;9.292;2023-03-24T00:48:09;4.15;;;2.08;;
50932;SDS011;36921;49.006;9.292;2023-03-24T00:50:36;4.97;;;2.17;;
50932;SDS011;36921;49.006;9.292;2023-03-24T00:53:01;3.75;;;1.73;;
50932;SDS011;36921;49.006;9.292;2023-03-24T00:55:26;4.00;;;1.88;;
50932;SDS011;36921;49.006;9.292;2023-03-24T00:57:52;4.50;;;1.67;;
50932;SDS011;36921;49.006;9.292;2023-03-24T01:00:19;4.57;;;1.52;;
50932;SDS011;36921;49.006;9.292;2023-03-24T01:05:18;3.42;;;1.60;;
50932;SDS011;36921;49.006;9.292;2023-03-24T01:07:47;3.72;;;1.73;;
50932;SDS011;36921;49.006;9.292;2023-03-24T01:10:33;3.55;;;1.60;;
50932;SDS011;36921;49.006;9.292;2023-03-24T01:13:16;3.45;;;2.20;;
50932;SDS011;36921;49.006;9.292;2023-03-24T01:15:41;5.47;;;1.50;;
50932;SDS011;36921;49.006;9.292;2023-03-24T01:18:09;2.90;;;1.75;;
50932;SDS011;36921;49.006;9.292;2023-03-24T01:20:36;2.08;;;1.52;;
50932;SDS011;36921;49.006;9.292;2023-03-24T01:23:04;6.15;;;1.95;;
50932;SDS011;36921;49.006;9.292;2023-03-24T01:25:31;3.45;;;1.73;;
50932;SDS011;36921;49.006;9.292;2023-03-24T01:27:56;2.58;;;1.50;;
50932;SDS011;36921;49.006;9.292;2023-03-24T01:30:23;2.85;;;1.77;;
50932;SDS011;36921;49.006;9.292;2023-03-24T01:32:51;3.95;;;1.60;;
50932;SDS011;36921;49.006;9.292;2023-03-24T01:35:17;2.72;;;1.50;;
50932;SDS011;36921;49.006;9.292;2023-03-24T01:37:43;3.63;;;1.67;;
50932;SDS011;36921;49.006;9.292;2023-03-24T01:40:10;4.50;;;1.80;;
50932;SDS011;36921;49.006;9.292;2023-03-24T01:42:41;3.72;;;1.50;;
50932;SDS011;36921;49.006;9.292;2023-03-24T01:48:00;3.08;;;1.52;;
50932;SDS011;36921;49.006;9.292;2023-03-24T01:53:04;3.80;;;1.80;;
50932;SDS011;36921;49.006;9.292;2023-03-24T01:55:31;2.97;;;1.80;;
50932;SDS011;36921;49.006;9.292;2023-03-24T01:57:57;3.53;;;1.75;;
50932;SDS011;36921;49.006;9.292;2023-03-24T02:00:26;1.90;;;1.48;;
50932;SDS011;36921;49.006;9.292;2023-03-24T02:02:53;3.00;;;1.85;;
50932;SDS011;36921;49.006;9.292;2023-03-24T02:05:24;5.50;;;1.60;;
50932;SDS011;36921;49.006;9.292;2023-03-24T02:10:26;2.70;;;1.50;;
50932;SDS011;36921;49.006;9.292;2023-03-24T02:12:55;2.30;;;1.40;;
50932;SDS011;36921;49.006;9.292;2023-03-24T02:15:21;3.63;;;1.65;;
50932;SDS011;36921;49.006;9.292;2023-03-24T02:23:31;2.50;;;1.40;;
50932;SDS011;36921;49.006;9.292;2023-03-24T02:29:12;6.03;;;1.80;;
50932;SDS011;36921;49.006;9.292;2023-03-24T02:40:21;2.00;;;1.13;;
50932;SDS011;36921;49.006;9.292;2023-03-24T02:56:44;3.33;;;1.35;;
50932;SDS011;36921;49.006;9.292;2023-03-24T02:59:41;1.65;;;1.27;;
50932;SDS011;36921;49.006;9.292;2023-03-24T03:02:40;3.55;;;1.60;;
50932;SDS011;36921;49.006;9.292;2023-03-24T03:05:13;3.67;;;1.60;;
50932;SDS011;36921;49.006;9.292;2023-03-24T03:08:01;3.08;;;1.65;;
50932;SDS011;36921;49.006;9.292;2023-03-24T03:10:30;2.63;;;1.50;;
50932;SDS011;36921;49.006;9.292;2023-03-24T03:13:01;3.00;;;1.55;;
50932;SDS011;36921;49.006;9.292;2023-03-24T03:15:35;3.33;;;1.70;;
50932;SDS011;36921;49.006;9.292;2023-03-24T03:18:19;4.55;;;1.90;;
50932;SDS011;36921;49.006;9.292;2023-03-24T03:20:47;2.80;;;1.65;;
50932;SDS011;36921;49.006;9.292;2023-03-24T03:23:19;1.83;;;1.25;;
50932;SDS011;36921;49.006;9.292;2023-03-24T03:25:56;3.28;;;1.50;;
50932;SDS011;36921;49.006;9.292;2023-03-24T03:28:30;3.88;;;1.38;;
50932;SDS011;36921;49.006;9.292;2023-03-24T03:30:58;3.22;;;1.75;;
50932;SDS011;36921;49.006;9.292;2023-03-24T03:33:30;6.88;;;1.70;;
50932;SDS011;36921;49.006;9.292;2023-03-24T03:36:06;3.28;;;1.48;;
50932;SDS011;36921;49.006;9.292;2023-03-24T03:38:44;3.97;;;1.40;;
50932;SDS011;36921;49.006;9.292;2023-03-24T03:41:19;1.85;;;1.33;;
50932;SDS011;36921;49.006;9.292;2023-03-24T03:43:45;3.08;;;1.30;;
50932;SDS011;36921;49.006;9.292;2023-03-24T03:46:12;2.78;;;1.30;;
50932;SDS011;36921;49.006;9.292;2023-03-24T03:48:38;7.82;;;3.58;;
50932;SDS011;36921;49.006;9.292;2023-03-24T03:51:04;8.18;;;3.42;;
50932;SDS011;36921;49.006;9.292;2023-03-24T03:53:45;5.55;;;2.00;;
50932;SDS011;36921;49.006;9.292;2023-03-24T03:56:24;2.65;;;1.65;;
50932;SDS011;36921;49.006;9.292;2023-03-24T03:58:53;3.28;;;1.63;;
50932;SDS011;36921;49.006;9.292;2023-03-24T04:01:20;3.00;;;1.55;;
50932;SDS011;36921;49.006;9.292;2023-03-24T04:09:36;1.92;;;1.30;;
50932;SDS011;36921;49.006;9.292;2023-03-24T04:23:04;2.13;;;1.40;;
50932;SDS011;36921;49.006;9.292;2023-03-24T04:25:47;2.08;;;1.40;;
50932;SDS011;36921;49.006;9.292;2023-03-24T04:31:25;2.92;;;1.40;;
50932;SDS011;36921;49.006;9.292;2023-03-24T04:33:56;1.80;;;1.40;;
50932;SDS011;36921;49.006;9.292;2023-03-24T04:39:19;2.17;;;1.50;;
50932;SDS011;36921;49.006;9.292;2023-03-24T04:41:52;2.67;;;1.30;;
50932;SDS011;36921;49.006;9.292;2023-03-24T04:44:20;3.43;;;1.43;;
50932;SDS011;36921;49.006;9.292;2023-03-24T04:46:50;2.88;;;1.35;;
50932;SDS011;36921;49.006;9.292;2023-03-24T04:49:18;3.17;;;1.42;;
50932;SDS011;36921;49.006;9.292;2023-03-24T04:51:44;2.58;;;1.35;;
50932;SDS011;36921;49.006;9.292;2023-03-24T04:54:10;3.10;;;1.48;;
50932;SDS011;36921;49.006;9.292;2023-03-24T04:56:46;3.33;;;1.40;;
50932;SDS011;36921;49.006;9.292;2023-03-24T04:59:14;3.47;;;1.60;;
50932;SDS011;36921;49.006;9.292;2023-03-24T05:01:40;2.72;;;1.40;;
50932;SDS011;36921;49.006;9.292;2023-03-24T05:04:14;3.30;;;1.52;;
50932;SDS011;36921;49.006;9.292;2023-03-24T05:06:40;2.33;;;1.50;;
50932;SDS011;36921;49.006;9.292;2023-03-24T05:09:06;2.53;;;1.60;;
50932;SDS011;36921;49.006;9.292;2023-03-24T05:11:32;3.15;;;1.80;;
50932;SDS011;36921;49.006;9.292;2023-03-24T05:13:57;4.13;;;1.52;;
50932;SDS011;36921;49.006;9.292;2023-03-24T05:16:22;2.25;;;1.45;;
50932;SDS011;36921;49.006;9.292;2023-03-24T05:18:48;2.85;;;1.50;;
50932;SDS011;36921;49.006;9.292;2023-03-24T05:21:14;2.85;;;1.50;;
50932;SDS011;36921;49.006;9.292;2023-03-24T05:23:40;2.97;;;1.60;;
50932;SDS011;36921;49.006;9.292;2023-03-24T05:26:06;3.92;;;1.88;;
50932;SDS011;36921;49.006;9.292;2023-03-24T05:28:32;4.38;;;1.17;;
50932;SDS011;36921;49.006;9.292;2023-03-24T05:33:46;2.67;;;1.70;;
50932;SDS011;36921;49.006;9.292;2023-03-24T05:36:14;4.25;;;1.92;;
50932;SDS011;36921;49.006;9.292;2023-03-24T05:38:39;3.22;;;1.80;;
50932;SDS011;36921;49.006;9.292;2023-03-24T05:41:06;4.97;;;2.00;;
50932;SDS011;36921;49.006;9.292;2023-03-24T05:43:32;2.78;;;1.80;;
50932;SDS011;36921;49.006;9.292;2023-03-24T05:45:57;3.25;;;1.55;;
50932;SDS011;36921;49.006;9.292;2023-03-24T05:48:24;2.20;;;1.42;;
50932;SDS011;36921;49.006;9.292;2023-03-24T05:50:52;3.85;;;1.45;;
50932;SDS011;36921;49.006;9.292;2023-03-24T05:53:18;2.73;;;1.50;;
50932;SDS011;36921;49.006;9.292;2023-03-24T05:55:44;2.90;;;1.60;;
50932;SDS011;36921;49.006;9.292;2023-03-24T05:58:10;2.72;;;1.70;;
50932;SDS011;36921;49.006;9.292;2023-03-24T06:00:36;2.47;;;1.77;;
50932;SDS011;36921;49.006;9.292;2023-03-24T06:03:02;4.65;;;1.40;;
50932;SDS011;36921;49.006;9.292;2023-03-24T06:05:28;2.65;;;1.70;;
50932;SDS011;36921;49.006;9.292;2023-03-24T06:07:53;1.65;;;1.20;;
50932;SDS011;36921;49.006;9.292;2023-03-24T06:10:22;5.28;;;1.80;;
50932;SDS011;36921;49.006;9.292;2023-03-24T06:15:19;3.47;;;1.60;;
50932;SDS011;36921;49.006;9.292;2023-03-24T06:17:44;3.42;;;1.65;;
50932;SDS011;36921;49.006;9.292;2023-03-24T06:20:11;3.83;;;1.88;;
50932;SDS011;36921;49.006;9.292;2023-03-24T06:25:08;3.45;;;1.88;;
50932;SDS011;36921;49.006;9.292;2023-03-24T06:27:34;2.55;;;1.77;;
50932;SDS011;36921;49.006;9.292;2023-03-24T06:30:00;4.38;;;2.25;;
50932;SDS011;36921;49.006;9.292;2023-03-24T06:32:25;2.55;;;1.75;;
50932;SDS011;36921;49.006;9.292;2023-03-24T06:34:51;2.70;;;2.00;;
50932;SDS011;36921;49.006;9.292;2023-03-24T06:37:17;4.75;;;2.45;;
50932;SDS011;36921;49.006;9.292;2023-03-24T06:39:44;4.15;;;2.50;;
50932;SDS011;36921;49.006;9.292;2023-03-24T06:42:09;6.18;;;2.45;;
50932;SDS011;36921;49.006;9.292;2023-03-24T06:44:37;4.72;;;1.92;;
50932;SDS011;36921;49.006;9.292;2023-03-24T06:47:03;5.78;;;2.13;;
50932;SDS011;36921;49.006;9.292;2023-03-24T06:49:29;4.68;;;1.80;;
50932;SDS011;36921;49.006;9.292;2023-03-24T06:51:54;3.53;;;2.15;;
50932;SDS011;36921;49.006;9.292;2023-03-24T06:54:21;4.15;;;2.10;;
50932;SDS011;36921;49.006;9.292;2023-03-24T06:56:46;5.60;;;2.45;;
50932;SDS011;36921;49.006;9.292;2023-03-24T06:59:12;5.35;;;2.97;;
50932;SDS011;36921;49.006;9.292;2023-03-24T07:01:38;5.85;;;3.00;;
50932;SDS011;36921;49.006;9.292;2023-03-24T07:04:04;5.18;;;3.10;;
50932;SDS011;36921;49.006;9.292;2023-03-24T07:06:30;6.53;;;3.10;;
50932;SDS011;36921;49.006;9.292;2023-03-24T07:08:56;6.57;;;3.72;;
50932;SDS011;36921;49.006;9.292;2023-03-24T07:11:22;5.78;;;3.15;;
50932;SDS011;36921;49.006;9.292;2023-03-24T07:13:48;6.20;;;2.85;;
50932;SDS011;36921;49.006;9.292;2023-03-24T07:16:14;6.03;;;2.78;;
50932;SDS011;36921;49.006;9.292;2023-03-24T07:18:39;5.10;;;2.53;;
50932;SDS011;36921;49.006;9.292;2023-03-24T07:21:05;6.75;;;3.13;;
50932;SDS011;36921;49.006;9.292;2023-03-24T07:23:31;6.95;;;3.42;;
50932;SDS011;36921;49.006;9.292;2023-03-24T07:25:58;7.47;;;3.38;;
50932;SDS011;36921;49.006;9.292;2023-03-24T07:28:23;5.95;;;3.40;;
50932;SDS011;36921;49.006;9.292;2023-03-24T07:30:49;9.25;;;2.78;;
50932;SDS011;36921;49.006;9.292;2023-03-24T07:33:15;5.22;;;2.63;;
50932;SDS011;36921;49.006;9.292;2023-03-24T07:35:41;8.82;;;2.97;;
50932;SDS011;36921;49.006;9.292;2023-03-24T07:38:07;10.13;;;3.72;;
50932;SDS011;36921;49.006;9.292;2023-03-24T07:40:34;5.95;;;2.40;;
50932;SDS011;36921;49.006;9.292;2023-03-24T07:43:00;6.53;;;3.20;;
50932;SDS011;36921;49.006;9.292;2023-03-24T07:45:29;8.38;;;3.17;;
50932;SDS011;36921;49.006;9.292;2023-03-24T07:47:55;4.60;;;3.08;;
50932;SDS011;36921;49.006;9.292;2023-03-24T07:50:26;7.75;;;3.05;;
50932;SDS011;36921;49.006;9.292;2023-03-24T07:52:54;4.95;;;3.10;;
50932;SDS011;36921;49.006;9.292;2023-03-24T07:55:19;5.97;;;3.20;;
50932;SDS011;36921;49.006;9.292;2023-03-24T07:57:45;5.90;;;3.53;;
50932;SDS011;36921;49.006;9.292;2023-03-24T08:00:12;6.53;;;3.17;;
50932;SDS011;36921;49.006;9.292;2023-03-24T08:02:44;6.75;;;3.25;;
50932;SDS011;36921;49.006;9.292;2023-03-24T08:05:16;7.00;;;4.07;;
50932;SDS011;36921;49.006;9.292;2023-03-24T08:07:44;6.18;;;3.35;;
50932;SDS011;36921;49.006;9.292;2023-03-24T08:10:17;6.13;;;3.55;;
50932;SDS011;36921;49.006;9.292;2023-03-24T08:12:44;5.30;;;3.97;;
50932;SDS011;36921;49.006;9.292;2023-03-24T08:15:10;6.78;;;3.65;;
50932;SDS011;36921;49.006;9.292;2023-03-24T08:17:35;5.65;;;3.30;;
50932;SDS011;36921;49.006;9.292;2023-03-24T08:20:01;7.65;;;2.90;;
50932;SDS011;36921;49.006;9.292;2023-03-24T08:22:32;3.38;;;2.58;;
50932;SDS011;36921;49.006;9.292;2023-03-24T08:24:57;2.80;;;2.20;;
50932;SDS011;36921;49.006;9.292;2023-03-24T08:27:23;7.18;;;2.55;;
50932;SDS011;36921;49.006;9.292;2023-03-24T08:29:48;5.60;;;2.38;;
50932;SDS011;36921;49.006;9.292;2023-03-24T08:32:14;5.03;;;2.30;;
50932;SDS011;36921;49.006;9.292;2023-03-24T08:34:39;2.15;;;1.63;;
50932;SDS011;36921;49.006;9.292;2023-03-24T08:37:05;3.38;;;1.98;;
50932;SDS011;36921;49.006;9.292;2023-03-24T08:39:30;3.90;;;2.20;;
50932;SDS011;36921;49.006;9.292;2023-03-24T08:44:25;4.32;;;2.40;;
50932;SDS011;36921;49.006;9.292;2023-03-24T08:46:51;6.78;;;2.95;;
50932;SDS011;36921;49.006;9.292;2023-03-24T08:49:16;4.75;;;2.38;;
50932;SDS011;36921;49.006;9.292;2023-03-24T08:51:42;8.52;;;2.50;;
50932;SDS011;36921;49.006;9.292;2023-03-24T08:54:07;4.22;;;2.47;;
50932;SDS011;36921;49.006;9.292;2023-03-24T08:56:33;7.03;;;2.63;;
50932;SDS011;36921;49.006;9.292;2023-03-24T08:58:59;4.00;;;2.75;;
50932;SDS011;36921;49.006;9.292;2023-03-24T09:01:25;7.50;;;2.88;;
50932;SDS011;36921;49.006;9.292;2023-03-24T09:03:51;5.40;;;2.80;;
50932;SDS011;36921;49.006;9.292;2023-03-24T09:06:17;4.07;;;2.38;;
50932;SDS011;36921;49.006;9.292;2023-03-24T09:08:42;8.95;;;2.80;;
50932;SDS011;36921;49.006;9.292;2023-03-24T09:11:18;6.63;;;3.15;;
50932;SDS011;36921;49.006;9.292;2023-03-24T09:13:46;5.97;;;3.20;;
50932;SDS011;36921;49.006;9.292;2023-03-24T09:16:12;4.75;;;2.67;;
50932;SDS011;36921;49.006;9.292;2023-03-24T09:18:39;6.50;;;3.15;;
50932;SDS011;36921;49.006;9.292;2023-03-24T09:21:04;5.80;;;2.78;;
50932;SDS011;36921;49.006;9.292;2023-03-24T09:23:31;6.00;;;2.50;;
50932;SDS011;36921;49.006;9.292;2023-03-24T09:25:56;3.88;;;2.63;;
50932;SDS011;36921;49.006;9.292;2023-03-24T09:28:22;4.18;;;2.50;;
50932;SDS011;36921;49.006;9.292;2023-03-24T09:30:48;6.07;;;2.78;;
50932;SDS011;36921;49.006;9.292;2023-03-24T09:33:14;6.25;;;2.50;;
50932;SDS011;36921;49.006;9.292;2023-03-24T09:35:39;3.55;;;2.47;;
50932;SDS011;36921;49.006;9.292;2023-03-24T09:38:05;10.02;;;2.80;;
50932;SDS011;36921;49.006;9.292;2023-03-24T09:40:34;4.93;;;2.33;;
50932;SDS011;36921;49.006;9.292;2023-03-24T09:43:05;5.00;;;2.67;;
50932;SDS011;36921;49.006;9.292;2023-03-24T09:45:49;5.93;;;2.30;;
50932;SDS011;36921;49.006;9.292;2023-03-24T09:48:26;3.80;;;2.25;;
50932;SDS011;36921;49.006;9.292;2023-03-24T09:51:50;3.00;;;2.20;;
50932;SDS011;36921;49.006;9.292;2023-03-24T09:56:43;2.85;;;1.85;;
50932;SDS011;36921;49.006;9.292;2023-03-24T10:01:45;2.25;;;1.27;;
50932;SDS011;36921;49.006;9.292;2023-03-24T10:04:14;1.95;;;1.42;;
50932;SDS011;36921;49.006;9.292;2023-03-24T10:06:43;3.63;;;1.88;;
50932;SDS011;36921;49.006;9.292;2023-03-24T10:09:26;2.17;;;1.30;;
50932;SDS011;36921;49.006;9.292;2023-03-24T10:12:03;1.80;;;1.08;;
50932;SDS011;36921;49.006;9.292;2023-03-24T10:22:47;1.70;;;0.80;;
50932;SDS011;36921;49.006;9.292;2023-03-24T10:27:59;1.30;;;1.00;;
50932;SDS011;36921;49.006;9.292;2023-03-24T10:30:30;2.50;;;1.00;;
50932;SDS011;36921;49.006;9.292;2023-03-24T10:32:58;3.20;;;0.90;;
50932;SDS011;36921;49.006;9.292;2023-03-24T10:35:24;2.85;;;1.00;;
50932;SDS011;36921;49.006;9.292;2023-03-24T10:37:53;2.33;;;1.00;;
50932;SDS011;36921;49.006;9.292;2023-03-24T10:40:24;1.20;;;0.82;;
50932;SDS011;36921;49.006;9.292;2023-03-24T10:42:52;1.60;;;1.02;;
50932;SDS011;36921;49.006;9.292;2023-03-24T10:45:39;1.55;;;0.82;;
50932;SDS011;36921;49.006;9.292;2023-03-24T10:48:05;2.58;;;1.02;;
50932;SDS011;36921;49.006;9.292;2023-03-24T10:50:32;0.90;;;0.77;;
50932;SDS011;36921;49.006;9.292;2023-03-24T10:52:59;1.33;;;0.90;;
50932;SDS011;36921;49.006;9.292;2023-03-24T10:55:36;1.52;;;1.00;;
50932;SDS011;36921;49.006;9.292;2023-03-24T10:58:27;1.83;;;0.90;;
50932;SDS011;36921;49.006;9.292;2023-03-24T11:00:59;1.75;;;0.77;;
50932;SDS011;36921;49.006;9.292;2023-03-24T11:03:29;1.40;;;0.90;;
50932;SDS011;36921;49.006;9.292;2023-03-24T11:06:01;2.78;;;0.90;;
50932;SDS011;36921;49.006;9.292;2023-03-24T11:08:33;4.53;;;1.00;;
50932;SDS011;36921;49.006;9.292;2023-03-24T11:11:00;1.00;;;0.77;;
50932;SDS011;36921;49.006;9.292;2023-03-24T11:13:38;0.95;;;0.80;;
50932;SDS011;36921;49.006;9.292;2023-03-24T11:16:11;1.25;;;0.93;;
50932;SDS011;36921;49.006;9.292;2023-03-24T11:19:00;1.90;;;0.88;;
50932;SDS011;36921;49.006;9.292;2023-03-24T11:21:33;1.05;;;0.70;;
50932;SDS011;36921;49.006;9.292;2023-03-24T11:24:01;1.42;;;0.80;;
50932;SDS011;36921;49.006;9.292;2023-03-24T11:26:31;2.08;;;0.50;;
50932;SDS011;36921;49.006;9.292;2023-03-24T11:29:00;1.30;;;0.80;;
50932;SDS011;36921;49.006;9.292;2023-03-24T11:31:29;2.70;;;0.85;;
50932;SDS011;36921;49.006;9.292;2023-03-24T11:36:38;1.00;;;0.60;;
50932;SDS011;36921;49.006;9.292;2023-03-24T11:39:21;0.70;;;0.50;;
50932;SDS011;36921;49.006;9.292;2023-03-24T11:42:37;1.10;;;0.60;;
50932;SDS011;36921;49.006;9.292;2023-03-24T11:47:28;0.75;;;0.50;;
50932;SDS011;36921;49.006;9.292;2023-03-24T11:53:18;0.93;;;0.65;;
50932;SDS011;36921;49.006;9.292;2023-03-24T11:57:58;2.25;;;0.40;;
50932;SDS011;36921;49.006;9.292;2023-03-24T12:01:29;0.55;;;0.28;;
50932;SDS011;36921;49.006;9.292;2023-03-24T12:06:43;1.25;;;0.65;;
50932;SDS011;36921;49.006;9.292;2023-03-24T12:09:44;2.03;;;0.60;;
50932;SDS011;36921;49.006;9.292;2023-03-24T12:12:40;0.47;;;0.30;;
50932;SDS011;36921;49.006;9.292;2023-03-24T12:15:19;0.57;;;0.43;;
50932;SDS011;36921;49.006;9.292;2023-03-24T12:26:13;1.17;;;0.55;;
50932;SDS011;36921;49.006;9.292;2023-03-24T12:39:54;3.50;;;0.57;;
50932;SDS011;36921;49.006;9.292;2023-03-24T12:42:43;1.48;;;0.60;;
50932;SDS011;36921;49.006;9.292;2023-03-24T12:45:22;1.42;;;0.65;;
50932;SDS011;36921;49.006;9.292;2023-03-24T12:48:15;0.50;;;0.30;;
50932;SDS011;36921;49.006;9.292;2023-03-24T12:55:49;0.88;;;0.30;;
50932;SDS011;36921;49.006;9.292;2023-03-24T13:00:55;0.85;;;0.50;;
50932;SDS011;36921;49.006;9.292;2023-03-24T13:03:36;5.50;;;0.65;;
50932;SDS011;36921;49.006;9.292;2023-03-24T13:08:41;1.27;;;0.47;;
50932;SDS011;36921;49.006;9.292;2023-03-24T13:11:17;5.22;;;0.73;;
50932;SDS011;36921;49.006;9.292;2023-03-24T13:13:50;0.90;;;0.50;;
50932;SDS011;36921;49.006;9.292;2023-03-24T13:16:21;2.70;;;0.70;;
50932;SDS011;36921;49.006;9.292;2023-03-24T13:18:52;1.50;;;0.50;;
50932;SDS011;36921;49.006;9.292;2023-03-24T13:21:20;0.90;;;0.53;;
50932;SDS011;36921;49.006;9.292;2023-03-24T13:23:59;5.37;;;0.50;;
50932;SDS011;36921;49.006;9.292;2023-03-24T13:26:36;2.90;;;0.60;;
50932;SDS011;36921;49.006;9.292;2023-03-24T13:31:38;2.42;;;0.50;;
50932;SDS011;36921;49.006;9.292;2023-03-24T13:34:27;1.55;;;0.70;;
50932;SDS011;36921;49.006;9.292;2023-03-24T13:36:58;5.07;;;0.95;;
50932;SDS011;36921;49.006;9.292;2023-03-24T13:39:30;2.92;;;0.50;;
50932;SDS011;36921;49.006;9.292;2023-03-24T13:41:58;2.67;;;0.47;;
50932;SDS011;36921;49.006;9.292;2023-03-24T13:49:34;3.20;;;0.60;;
50932;SDS011;36921;49.006;9.292;2023-03-24T13:52:03;3.10;;;0.60;;
50932;SDS011;36921;49.006;9.292;2023-03-24T13:54:31;1.05;;;0.50;;
50932;SDS011;36921;49.006;9.292;2023-03-24T13:57:05;0.90;;;0.40;;
50932;SDS011;36921;49.006;9.292;2023-03-24T14:04:45;3.63;;;0.50;;
50932;SDS011;36921;49.006;9.292;2023-03-24T14:09:57;0.63;;;0.50;;
50932;SDS011;36921;49.006;9.292;2023-03-24T14:12:35;4.15;;;0.73;;
50932;SDS011;36921;49.006;9.292;2023-03-24T14:15:17;3.33;;;0.60;;
50932;SDS011;36921;49.006;9.292;2023-03-24T14:24:08;1.75;;;0.50;;
50932;SDS011;36921;49.006;9.292;2023-03-24T14:28:45;5.05;;;1.58;;
50932;SDS011;36921;49.006;9.292;2023-03-24T14:36:24;2.35;;;0.68;;
50932;SDS011;36921;49.006;9.292;2023-03-24T14:38:54;1.58;;;0.60;;
50932;SDS011;36921;49.006;9.292;2023-03-24T14:41:28;6.95;;;1.08;;
50932;SDS011;36921;49.006;9.292;2023-03-24T14:44:00;1.35;;;0.68;;
50932;SDS011;36921;49.006;9.292;2023-03-24T14:49:27;2.58;;;0.70;;
50932;SDS011;36921;49.006;9.292;2023-03-24T14:51:57;5.53;;;0.80;;
50932;SDS011;36921;49.006;9.292;2023-03-24T14:57:39;3.70;;;0.70;;
50932;SDS011;36921;49.006;9.292;2023-03-24T15:00:18;2.25;;;0.60;;
50932;SDS011;36921;49.006;9.292;2023-03-24T15:02:47;4.22;;;0.88;;
50932;SDS011;36921;49.006;9.292;2023-03-24T15:08:10;6.13;;;0.88;;
50932;SDS011;36921;49.006;9.292;2023-03-24T15:10:42;2.70;;;0.90;;
50932;SDS011;36921;49.006;9.292;2023-03-24T15:13:22;4.90;;;0.70;;
50932;SDS011;36921;49.006;9.292;2023-03-24T15:15:50;4.57;;;1.08;;
50932;SDS011;36921;49.006;9.292;2023-03-24T15:18:15;5.15;;;0.63;;
50932;SDS011;36921;49.006;9.292;2023-03-24T15:20:42;3.53;;;0.60;;
50932;SDS011;36921;49.006;9.292;2023-03-24T15:23:12;3.65;;;0.80;;
50932;SDS011;36921;49.006;9.292;2023-03-24T15:25:42;3.53;;;1.73;;
50932;SDS011;36921;49.006;9.292;2023-03-24T15:28:21;1.80;;;1.00;;
50932;SDS011;36921;49.006;9.292;2023-03-24T15:30:49;2.95;;;1.25;;
50932;SDS011;36921;49.006;9.292;2023-03-24T15:33:15;3.80;;;1.15;;
50932;SDS011;36921;49.006;9.292;2023-03-24T15:35:42;3.90;;;0.50;;
50932;SDS011;36921;49.006;9.292;2023-03-24T15:38:26;3.60;;;0.98;;
50932;SDS011;36921;49.006;9.292;2023-03-24T15:41:03;3.92;;;1.15;;
50932;SDS011;36921;49.006;9.292;2023-03-24T15:43:39;4.43;;;1.27;;
50932;SDS011;36921;49.006;9.292;2023-03-24T15:46:29;5.00;;;1.10;;
50932;SDS011;36921;49.006;9.292;2023-03-24T15:48:55;4.03;;;0.82;;
50932;SDS011;36921;49.006;9.292;2023-03-24T15:54:21;3.70;;;1.00;;
50932;SDS011;36921;49.006;9.292;2023-03-24T15:56:59;3.22;;;1.35;;
50932;SDS011;36921;49.006;9.292;2023-03-24T15:59:31;8.82;;;1.23;;
50932;SDS011;36921;49.006;9.292;2023-03-24T16:01:59;3.15;;;1.00;;
50932;SDS011;36921;49.006;9.292;2023-03-24T16:04:27;3.78;;;1.27;;
50932;SDS011;36921;49.006;9.292;2023-03-24T16:06:53;2.53;;;1.10;;
50932;SDS011;36921;49.006;9.292;2023-03-24T16:09:19;4.28;;;1.00;;
50932;SDS011;36921;49.006;9.292;2023-03-24T16:11:46;3.22;;;1.63;;
50932;SDS011;36921;49.006;9.292;2023-03-24T16:14:22;2.95;;;1.25;;
50932;SDS011;36921;49.006;9.292;2023-03-24T16:16:53;3.05;;;1.45;;
50932;SDS011;36921;49.006;9.292;2023-03-24T16:19:20;8.18;;;1.60;;
50932;SDS011;36921;49.006;9.292;2023-03-24T16:21:45;2.50;;;1.30;;
50932;SDS011;36921;49.006;9.292;2023-03-24T16:24:11;3.88;;;1.52;;
50932;SDS011;36921;49.006;9.292;2023-03-24T16:26:36;3.83;;;1.13;;
50932;SDS011;36921;49.006;9.292;2023-03-24T16:29:21;2.25;;;0.98;;
50932;SDS011;36921;49.006;9.292;2023-03-24T16:31:51;2.50;;;0.82;;
50932;SDS011;36921;49.006;9.292;2023-03-24T16:34:19;2.58;;;1.00;;
50932;SDS011;36921;49.006;9.292;2023-03-24T16:36:49;4.15;;;1.13;;
50932;SDS011;36921;49.006;9.292;2023-03-24T16:39:20;1.45;;;0.85;;
50932;SDS011;36921;49.006;9.292;2023-03-24T16:41:47;1.33;;;0.80;;
50932;SDS011;36921;49.006;9.292;2023-03-24T16:44:12;2.88;;;0.98;;
50932;SDS011;36921;49.006;9.292;2023-03-24T16:46:38;4.63;;;1.00;;
50932;SDS011;36921;49.006;9.292;2023-03-24T16:49:06;7.85;;;1.25;;
50932;SDS011;36921;49.006;9.292;2023-03-24T16:51:35;3.83;;;0.95;;
50932;SDS011;36921;49.006;9.292;2023-03-24T16:54:00;1.77;;;0.85;;
50932;SDS011;36921;49.006;9.292;2023-03-24T16:56:26;1.30;;;0.80;;
50932;SDS011;36921;49.006;9.292;2023-03-24T16:58:51;1.98;;;0.82;;
50932;SDS011;36921;49.006;9.292;2023-03-24T17:03:53;2.72;;;1.13;;
50932;SDS011;36921;49.006;9.292;2023-03-24T17:06:23;3.53;;;1.23;;
50932;SDS011;36921;49.006;9.292;2023-03-24T17:08:50;1.67;;;0.95;;
50932;SDS011;36921;49.006;9.292;2023-03-24T17:11:16;6.57;;;1.00;;
50932;SDS011;36921;49.006;9.292;2023-03-24T17:13:47;2.00;;;0.90;;
50932;SDS011;36921;49.006;9.292;2023-03-24T17:16:12;4.15;;;1.08;;
50932;SDS011;36921;49.006;9.292;2023-03-24T17:18:39;2.97;;;1.30;;
50932;SDS011;36921;49.006;9.292;2023-03-24T17:21:23;2.67;;;1.15;;
50932;SDS011;36921;49.006;9.292;2023-03-24T17:23:48;2.47;;;0.98;;
50932;SDS011;36921;49.006;9.292;2023-03-24T17:26:18;2.20;;;0.90;;
50932;SDS011;36921;49.006;9.292;2023-03-24T17:28:46;3.53;;;1.00;;
50932;SDS011;36921;49.006;9.292;2023-03-24T17:31:11;3.15;;;1.10;;
50932;SDS011;36921;49.006;9.292;2023-03-24T17:33:36;4.20;;;1.20;;
50932;SDS011;36921;49.006;9.292;2023-03-24T17:36:02;5.43;;;1.17;;
50932;SDS011;36921;49.006;9.292;2023-03-24T17:38:27;1.73;;;1.05;;
50932;SDS011;36921;49.006;9.292;2023-03-24T17:41:02;2.28;;;1.30;;
50932;SDS011;36921;49.006;9.292;2023-03-24T17:43:28;2.05;;;1.27;;
50932;SDS011;36921;49.006;9.292;2023-03-24T17:45:58;3.50;;;1.05;;
50932;SDS011;36921;49.006;9.292;2023-03-24T17:48:25;3.30;;;1.25;;
50932;SDS011;36921;49.006;9.292;2023-03-24T17:50:51;1.67;;;0.90;;
50932;SDS011;36921;49.006;9.292;2023-03-24T17:53:16;2.08;;;0.75;;
50932;SDS011;36921;49.006;9.292;2023-03-24T17:55:53;1.95;;;0.85;;
50932;SDS011;36921;49.006;9.292;2023-03-24T17:58:20;1.48;;;0.70;;
50932;SDS011;36921;49.006;9.292;2023-03-24T18:00:46;2.13;;;0.70;;
50932;SDS011;36921;49.006;9.292;2023-03-24T18:03:11;2.70;;;1.00;;